createdAt,value
2023-04-11T00:00:54.906Z,8.90
2023-04-11T00:03:22.442Z,8.90
2023-04-11T00:05:49.618Z,8.90
2023-04-11T00:08:16.593Z,8.90
2023-04-11T00:10:44.973Z,8.80
2023-04-11T00:13:12.525Z,8.80
2023-04-11T00:15:39.431Z,8.80
2023-04-11T00:18:07.151Z,8.80
2023-04-11T00:20:34.031Z,8.80
2023-04-11T00:23:00.929Z,8.70
2023-04-11T00:25:29.732Z,8.70
2023-04-11T00:27:56.629Z,8.80
2023-04-11T00:30:23.356Z,8.70
2023-04-11T00:32:50.364Z,8.70
2023-04-11T00:35:17.159Z,8.70
2023-04-11T00:37:45.551Z,8.70
2023-04-11T00:40:14.284Z,8.60
2023-04-11T00:42:41.084Z,8.60
2023-04-11T00:45:08.386Z,8.60
2023-04-11T00:47:35.755Z,8.60
2023-04-11T00:50:02.842Z,8.60
2023-04-11T00:52:29.731Z,8.50
2023-04-11T00:54:56.473Z,8.50
2023-04-11T00:57:26.094Z,8.50
2023-04-11T00:59:52.966Z,8.50
2023-04-11T01:02:19.763Z,8.40
2023-04-11T01:04:46.737Z,8.40
2023-04-11T01:07:14.247Z,8.40
2023-04-11T01:09:41.228Z,8.40
2023-04-11T01:12:08.185Z,8.40
2023-04-11T01:14:34.936Z,8.30
2023-04-11T01:17:02.399Z,8.30
2023-04-11T01:19:29.804Z,8.30
2023-04-11T01:21:58.033Z,8.20
2023-04-11T01:24:25.014Z,8.20
2023-04-11T01:26:52.307Z,8.20
2023-04-11T01:29:19.025Z,8.20
2023-04-11T01:31:46.233Z,8.20
2023-04-11T01:34:14.843Z,8.20
2023-04-11T01:36:42.566Z,8.10
2023-04-11T01:39:10.008Z,8.10
2023-04-11T01:41:37.471Z,8.10
2023-04-11T01:44:04.720Z,8.10
2023-04-11T01:46:32.048Z,8.00
2023-04-11T01:49:00.510Z,8.00
2023-04-11T01:51:27.673Z,8.00
2023-04-11T01:53:54.961Z,8.00
2023-04-11T01:56:22.164Z,8.00
2023-04-11T01:58:49.025Z,7.90
2023-04-11T02:01:19.728Z,7.90
2023-04-11T02:03:46.617Z,7.90
2023-04-11T02:06:15.498Z,7.90
2023-04-11T02:08:42.847Z,7.90
2023-04-11T02:11:10.169Z,7.90
2023-04-11T02:13:37.015Z,7.90
2023-04-11T02:16:11.928Z,7.90
2023-04-11T02:18:39.822Z,7.90
2023-04-11T02:21:06.666Z,7.80
2023-04-11T02:23:34.262Z,7.90
2023-04-11T02:26:02.091Z,7.90
2023-04-11T02:28:29.116Z,7.80
2023-04-11T02:30:56.201Z,7.80
2023-04-11T02:33:23.281Z,7.80
2023-04-11T02:35:50.243Z,7.80
2023-04-11T02:38:17.005Z,7.80
2023-04-11T02:40:43.869Z,7.80
2023-04-11T02:43:10.636Z,7.80
2023-04-11T02:45:37.362Z,7.70
2023-04-11T02:48:04.695Z,7.70
2023-04-11T02:50:31.653Z,7.70
2023-04-11T02:52:58.394Z,7.70
2023-04-11T02:55:25.273Z,7.60
2023-04-11T02:57:52.286Z,7.60
2023-04-11T03:00:20.241Z,7.60
2023-04-11T03:02:47.107Z,7.60
2023-04-11T03:05:15.571Z,7.60
2023-04-11T03:07:43.286Z,7.60
2023-04-11T03:10:10.329Z,7.50
2023-04-11T03:12:37.174Z,7.50
2023-04-11T03:15:04.267Z,7.50
2023-04-11T03:17:31.048Z,7.50
2023-04-11T03:19:57.850Z,7.40
2023-04-11T03:22:24.687Z,7.40
2023-04-11T03:24:51.448Z,7.40
2023-04-11T03:27:18.239Z,7.40
2023-04-11T03:29:44.954Z,7.40
2023-04-11T03:32:11.685Z,7.40
2023-04-11T03:34:39.310Z,7.40
2023-04-11T03:37:06.056Z,7.30
2023-04-11T03:39:32.795Z,7.30
2023-04-11T03:41:59.548Z,7.30
2023-04-11T03:44:26.248Z,7.30
2023-04-11T03:46:53.107Z,7.20
2023-04-11T03:49:19.849Z,7.20
2023-04-11T03:51:46.638Z,7.20
2023-04-11T03:54:13.356Z,7.10
2023-04-11T03:56:40.751Z,7.10
2023-04-11T03:59:07.495Z,7.10
2023-04-11T04:01:37.938Z,7.10
2023-04-11T04:04:05.773Z,7.00
2023-04-11T04:06:32.655Z,7.00
2023-04-11T04:09:02.276Z,7.00
2023-04-11T04:11:29.100Z,7.00
2023-04-11T04:13:56.174Z,7.00
2023-04-11T04:16:23.275Z,6.90
2023-04-11T04:18:50.259Z,6.90
2023-04-11T04:21:17.914Z,6.90
2023-04-11T04:23:49.945Z,6.90
2023-04-11T04:26:17.190Z,6.90
2023-04-11T04:28:46.504Z,6.90
2023-04-11T04:31:15.155Z,6.80
2023-04-11T04:33:42.937Z,6.80
2023-04-11T04:36:12.312Z,6.80
2023-04-11T04:38:42.163Z,6.80
2023-04-11T04:41:15.235Z,6.80
2023-04-11T04:43:42.614Z,6.70
2023-04-11T04:46:10.101Z,6.70
2023-04-11T04:48:36.927Z,6.70
2023-04-11T04:51:05.008Z,6.70
2023-04-11T04:53:34.672Z,6.70
2023-04-11T04:56:01.961Z,6.70
2023-04-11T04:58:28.749Z,6.70
2023-04-11T05:00:56.075Z,6.60
2023-04-11T05:03:23.232Z,6.60
2023-04-11T05:05:50.498Z,6.60
2023-04-11T05:08:18.622Z,6.60
2023-04-11T05:10:45.381Z,6.60
2023-04-11T05:13:12.112Z,6.50
2023-04-11T05:15:38.845Z,6.50
2023-04-11T05:18:05.877Z,6.50
2023-04-11T05:20:32.642Z,6.50
2023-04-11T05:22:59.416Z,6.50
2023-04-11T05:25:26.118Z,6.50
2023-04-11T05:27:52.895Z,6.50
2023-04-11T05:30:19.820Z,6.50
2023-04-11T05:32:46.607Z,6.50
2023-04-11T05:35:13.457Z,6.50
2023-04-11T05:37:40.532Z,6.50
2023-04-11T05:40:08.924Z,6.50
2023-04-11T05:42:35.810Z,6.40
2023-04-11T05:45:02.565Z,6.50
2023-04-11T05:47:29.278Z,6.50
2023-04-11T05:49:56.104Z,6.50
2023-04-11T05:52:22.861Z,6.50
2023-04-11T05:54:49.571Z,6.50
2023-04-11T05:57:17.557Z,6.50
2023-04-11T05:59:44.371Z,6.50
2023-04-11T06:02:11.708Z,6.50
2023-04-11T06:04:38.673Z,6.50
2023-04-11T06:07:05.684Z,6.60
2023-04-11T06:09:34.056Z,6.60
2023-04-11T06:12:01.536Z,6.60
2023-04-11T06:14:28.262Z,6.70
2023-04-11T06:16:55.036Z,6.70
2023-04-11T06:19:21.753Z,6.70
2023-04-11T06:21:48.466Z,6.80
2023-04-11T06:24:18.179Z,6.80
2023-04-11T06:26:44.937Z,6.80
2023-04-11T06:29:11.853Z,6.80
2023-04-11T06:31:40.334Z,6.80
2023-04-11T06:34:07.157Z,6.90
2023-04-11T06:36:34.074Z,6.90
2023-04-11T06:39:00.899Z,6.90
2023-04-11T06:41:27.652Z,6.90
2023-04-11T06:43:54.603Z,7.00
2023-04-11T06:46:21.475Z,7.00
2023-04-11T06:48:48.247Z,7.10
2023-04-11T06:51:14.989Z,7.10
2023-04-11T06:53:41.972Z,7.20
2023-04-11T06:56:09.392Z,7.20
2023-04-11T06:58:36.275Z,7.30
2023-04-11T07:01:03.081Z,7.30
2023-04-11T07:03:31.027Z,7.40
2023-04-11T07:05:58.021Z,7.40
2023-04-11T07:08:24.763Z,7.40
2023-04-11T07:10:51.473Z,7.50
2023-04-11T07:13:18.281Z,7.50
2023-04-11T07:15:45.027Z,7.50
2023-04-11T07:18:13.151Z,7.70
2023-04-11T07:20:40.003Z,7.70
2023-04-11T07:23:06.846Z,7.70
2023-04-11T07:25:33.777Z,7.70
2023-04-11T07:28:00.751Z,7.80
2023-04-11T07:30:28.582Z,7.80
2023-04-11T07:32:55.465Z,7.90
2023-04-11T07:35:22.374Z,7.90
2023-04-11T07:37:49.185Z,7.90
2023-04-11T07:40:16.054Z,8.00
2023-04-11T07:42:42.897Z,8.10
2023-04-11T07:45:09.872Z,8.10
2023-04-11T07:47:36.862Z,8.20
2023-04-11T07:50:04.558Z,8.20
2023-04-11T07:52:31.772Z,8.10
2023-04-11T07:54:58.597Z,8.10
2023-04-11T07:57:25.598Z,8.30
2023-04-11T07:59:52.386Z,8.30
2023-04-11T08:02:19.242Z,8.50
2023-04-11T08:04:46.220Z,8.60
2023-04-11T08:07:13.132Z,8.60
2023-04-11T08:09:39.915Z,8.60
2023-04-11T08:12:06.787Z,8.70
2023-04-11T08:14:33.596Z,8.70
2023-04-11T08:17:00.929Z,8.80
2023-04-11T08:19:28.042Z,8.90
2023-04-11T08:21:54.848Z,9.00
2023-04-11T08:24:21.997Z,9.10
2023-04-11T08:26:48.749Z,9.30
2023-04-11T08:29:15.592Z,9.50
2023-04-11T08:31:45.471Z,9.70
2023-04-11T08:34:12.994Z,10.00
2023-04-11T08:36:39.861Z,10.10
2023-04-11T08:39:06.753Z,10.20
2023-04-11T08:41:33.623Z,10.30
2023-04-11T08:44:00.705Z,10.50
2023-04-11T08:46:28.639Z,10.60
2023-04-11T08:48:55.702Z,10.70
2023-04-11T08:51:24.110Z,10.80
2023-04-11T08:53:54.607Z,10.80
2023-04-11T08:56:21.521Z,10.80
2023-04-11T08:58:48.416Z,10.80
2023-04-11T09:01:35.035Z,10.70
2023-04-11T09:04:05.192Z,10.70
2023-04-11T09:06:33.717Z,10.80
2023-04-11T09:09:02.353Z,10.90
2023-04-11T09:11:29.208Z,10.90
2023-04-11T09:14:08.961Z,10.90
2023-04-11T09:16:36.550Z,10.90
2023-04-11T09:19:03.721Z,11.00
2023-04-11T09:21:31.274Z,11.00
2023-04-11T09:24:16.848Z,11.00
2023-04-11T09:26:43.678Z,11.10
2023-04-11T09:29:10.600Z,11.10
2023-04-11T09:31:44.990Z,11.10
2023-04-11T09:34:12.542Z,11.20
2023-04-11T09:36:39.642Z,11.30
2023-04-11T09:39:17.305Z,11.30
2023-04-11T09:41:44.512Z,11.40
2023-04-11T09:44:11.309Z,11.50
2023-04-11T09:46:56.449Z,11.50
2023-04-11T09:49:23.992Z,11.50
2023-04-11T09:51:53.192Z,11.50
2023-04-11T09:54:23.217Z,11.40
2023-04-11T09:56:50.386Z,11.50
2023-04-11T09:59:20.047Z,11.60
2023-04-11T10:01:48.975Z,11.60
2023-04-11T10:04:16.453Z,11.70
2023-04-11T10:06:47.379Z,11.70
2023-04-11T10:09:15.021Z,11.70
2023-04-11T10:11:43.033Z,11.60
2023-04-11T10:14:10.720Z,11.40
2023-04-11T10:17:20.089Z,11.50
2023-04-11T10:19:49.415Z,11.60
2023-04-11T10:22:43.077Z,11.90
2023-04-11T10:25:17.069Z,11.70
2023-04-11T10:27:49.997Z,11.80
2023-04-11T10:30:16.866Z,11.90
2023-04-11T10:33:12.679Z,12.00
2023-04-11T10:36:10.147Z,12.00
2023-04-11T10:38:37.579Z,12.10
2023-04-11T10:41:22.885Z,12.20
2023-04-11T10:43:49.882Z,12.30
2023-04-11T10:46:24.600Z,12.50
2023-04-11T10:49:05.075Z,12.50
2023-04-11T10:51:33.082Z,12.40
2023-04-11T10:54:00.790Z,12.40
2023-04-11T10:56:42.909Z,12.40
2023-04-11T10:59:38.907Z,12.20
2023-04-11T11:02:05.986Z,12.20
2023-04-11T11:04:37.326Z,12.10
2023-04-11T11:07:13.186Z,12.00
2023-04-11T11:09:39.897Z,12.00
2023-04-11T11:12:10.577Z,12.10
2023-04-11T11:14:38.446Z,12.20
2023-04-11T11:17:05.828Z,12.10
2023-04-11T11:19:32.783Z,12.10
2023-04-11T11:22:06.366Z,12.00
2023-04-11T11:24:33.133Z,12.00
2023-04-11T11:26:59.932Z,12.00
2023-04-11T11:29:32.177Z,11.80
2023-04-11T11:32:01.067Z,11.60
2023-04-11T11:34:29.232Z,11.30
2023-04-11T11:36:56.742Z,11.30
2023-04-11T11:39:24.190Z,11.30
2023-04-11T11:41:54.032Z,11.40
2023-04-11T11:44:24.542Z,11.60
2023-04-11T11:47:04.544Z,11.80
2023-04-11T11:49:43.512Z,12.00
2023-04-11T11:52:11.772Z,12.20
2023-04-11T11:54:45.615Z,12.40
2023-04-11T11:57:12.511Z,12.50
2023-04-11T11:59:39.361Z,12.70
2023-04-11T12:02:06.327Z,12.90
2023-04-11T12:04:33.791Z,13.10
2023-04-11T12:07:08.655Z,13.10
2023-04-11T12:09:36.173Z,13.20
2023-04-11T12:12:03.263Z,13.40
2023-04-11T12:14:30.009Z,13.50
2023-04-11T12:16:56.795Z,13.60
2023-04-11T12:19:23.631Z,13.60
2023-04-11T12:21:50.469Z,13.70
2023-04-11T12:24:17.261Z,13.80
2023-04-11T12:27:05.649Z,13.80
2023-04-11T12:29:32.821Z,13.70
2023-04-11T12:31:59.551Z,13.90
2023-04-11T12:34:26.287Z,14.10
2023-04-11T12:36:53.598Z,14.30
2023-04-11T12:39:20.409Z,14.40
2023-04-11T12:41:47.290Z,14.50
2023-04-11T12:44:14.146Z,14.40
2023-04-11T12:46:40.944Z,14.50
2023-04-11T12:49:07.736Z,14.40
2023-04-11T12:51:34.481Z,14.50
2023-04-11T12:54:01.661Z,14.60
2023-04-11T12:56:28.520Z,14.70
2023-04-11T12:58:55.417Z,14.90
2023-04-11T13:01:23.597Z,15.00
2023-04-11T13:03:50.547Z,14.80
2023-04-11T13:06:17.355Z,14.70
2023-04-11T13:08:44.097Z,14.60
2023-04-11T13:11:11.298Z,14.80
2023-04-11T13:13:38.082Z,14.80
2023-04-11T13:16:05.258Z,14.90
2023-04-11T13:18:32.102Z,15.00
2023-04-11T13:20:58.845Z,15.00
2023-04-11T13:23:25.847Z,15.00
2023-04-11T13:25:52.739Z,15.20
2023-04-11T13:28:19.487Z,15.60
2023-04-11T13:30:46.770Z,15.90
2023-04-11T13:33:13.490Z,15.90
2023-04-11T13:35:40.444Z,15.90
2023-04-11T13:38:07.198Z,15.80
2023-04-11T13:40:35.479Z,15.90
2023-04-11T13:43:02.371Z,15.90
2023-04-11T13:45:29.313Z,16.00
2023-04-11T13:47:57.854Z,16.30
2023-04-11T13:50:24.842Z,16.40
2023-04-11T13:52:51.565Z,16.30
2023-04-11T13:55:18.420Z,16.20
2023-04-11T13:57:45.315Z,16.40
2023-04-11T14:00:12.563Z,16.40
2023-04-11T14:02:40.511Z,16.40
2023-04-11T14:05:09.041Z,16.30
2023-04-11T14:07:35.828Z,16.20
2023-04-11T14:10:02.633Z,16.30
2023-04-11T14:12:29.370Z,16.40
2023-04-11T14:14:56.136Z,16.60
2023-04-11T14:17:22.888Z,16.50
2023-04-11T14:19:49.678Z,16.50
2023-04-11T14:22:16.544Z,16.30
2023-04-11T14:24:43.510Z,16.20
2023-04-11T14:27:10.303Z,16.30
2023-04-11T14:29:37.655Z,16.30
2023-04-11T14:32:06.913Z,16.40
2023-04-11T14:34:34.218Z,16.50
2023-04-11T14:37:01.288Z,16.50
2023-04-11T14:39:28.143Z,16.40
2023-04-11T14:41:54.886Z,16.40
2023-04-11T14:44:21.735Z,16.30
2023-04-11T14:46:48.469Z,16.20
2023-04-11T14:49:15.367Z,16.10
2023-04-11T14:51:42.186Z,16.20
2023-04-11T14:54:08.951Z,16.30
2023-04-11T14:56:36.465Z,16.50
2023-04-11T14:59:03.307Z,16.40
2023-04-11T15:01:30.723Z,16.50
2023-04-11T15:03:57.850Z,16.40
2023-04-11T15:06:24.826Z,16.40
2023-04-11T15:08:52.406Z,16.40
2023-04-11T15:11:19.324Z,16.30
2023-04-11T15:13:48.212Z,16.10
2023-04-11T15:16:15.020Z,15.90
2023-04-11T15:18:41.782Z,16.00
2023-04-11T15:21:08.569Z,16.10
2023-04-11T15:23:35.437Z,16.10
2023-04-11T15:26:03.158Z,16.30
2023-04-11T15:28:34.732Z,16.10
2023-04-11T15:31:05.130Z,16.00
2023-04-11T15:33:32.021Z,15.90
2023-04-11T15:36:00.452Z,15.80
2023-04-11T15:38:28.499Z,15.80
2023-04-11T15:40:57.067Z,15.80
2023-04-11T15:43:24.495Z,15.80
2023-04-11T15:45:54.844Z,16.00
2023-04-11T15:48:21.768Z,16.00
2023-04-11T15:50:48.686Z,16.10
2023-04-11T15:53:15.424Z,16.10
2023-04-11T15:55:43.378Z,16.00
2023-04-11T15:58:10.619Z,15.80
2023-04-11T16:00:38.107Z,15.80
2023-04-11T16:03:06.287Z,15.90
2023-04-11T16:05:33.825Z,15.70
2023-04-11T16:08:00.669Z,15.60
2023-04-11T16:10:27.696Z,15.50
2023-04-11T16:12:54.467Z,15.40
2023-04-11T16:15:21.310Z,15.40
2023-04-11T16:17:48.273Z,15.50
2023-04-11T16:20:21.414Z,15.40
2023-04-11T16:22:48.293Z,15.40
2023-04-11T16:25:18.899Z,15.40
2023-04-11T16:27:45.820Z,15.40
2023-04-11T16:30:12.784Z,15.30
2023-04-11T16:32:39.533Z,15.20
2023-04-11T16:35:07.023Z,15.10
2023-04-11T16:37:33.908Z,15.20
2023-04-11T16:40:00.974Z,15.00
2023-04-11T16:42:27.747Z,14.90
2023-04-11T16:44:54.508Z,14.90
2023-04-11T16:47:26.181Z,14.80
2023-04-11T16:49:53.464Z,14.70
2023-04-11T16:52:21.146Z,14.80
2023-04-11T16:54:48.255Z,14.90
2023-04-11T16:57:15.056Z,15.00
2023-04-11T16:59:41.915Z,14.90
2023-04-11T17:02:08.787Z,14.90
2023-04-11T17:04:35.687Z,14.90
2023-04-11T17:07:02.572Z,14.80
2023-04-11T17:09:29.586Z,14.80
2023-04-11T17:11:57.880Z,14.70
2023-04-11T17:14:24.747Z,14.80
2023-04-11T17:16:51.704Z,14.80
2023-04-11T17:19:18.791Z,14.80
2023-04-11T17:21:45.483Z,14.80
2023-04-11T17:24:12.197Z,14.70
2023-04-11T17:26:38.936Z,14.60
2023-04-11T17:29:06.572Z,14.60
2023-04-11T17:31:34.015Z,14.40
2023-04-11T17:34:00.818Z,14.40
2023-04-11T17:36:28.421Z,14.60
2023-04-11T17:38:55.829Z,14.50
2023-04-11T17:41:22.950Z,14.50
2023-04-11T17:43:50.070Z,14.50
2023-04-11T17:46:16.962Z,14.40
2023-04-11T17:48:43.818Z,14.20
2023-04-11T17:51:10.677Z,14.20
2023-04-11T17:53:37.428Z,14.30
2023-04-11T17:56:05.782Z,14.20
2023-04-11T17:58:33.083Z,14.20
2023-04-11T18:00:59.875Z,13.90
2023-04-11T18:03:26.855Z,13.90
2023-04-11T18:05:54.728Z,13.80
2023-04-11T18:08:36.171Z,13.90
2023-04-11T18:11:09.852Z,13.90
2023-04-11T18:13:36.641Z,14.00
2023-04-11T18:16:04.420Z,13.90
2023-04-11T18:18:31.281Z,14.00
2023-04-11T18:21:06.670Z,13.80
2023-04-11T18:23:34.967Z,13.80
2023-04-11T18:26:01.825Z,13.70
2023-04-11T18:28:28.985Z,13.70
2023-04-11T18:30:56.296Z,13.60
2023-04-11T18:33:23.190Z,13.60
2023-04-11T18:35:50.054Z,13.50
2023-04-11T18:38:16.910Z,13.50
2023-04-11T18:40:43.960Z,13.50
2023-04-11T18:43:10.718Z,13.50
2023-04-11T18:45:39.016Z,13.40
2023-04-11T18:48:06.597Z,13.40
2023-04-11T18:50:38.820Z,13.30
2023-04-11T18:53:09.133Z,13.20
2023-04-11T18:55:36.755Z,13.10
2023-04-11T18:58:05.545Z,13.10
2023-04-11T19:00:34.598Z,13.20
2023-04-11T19:03:01.817Z,13.10
2023-04-11T19:05:29.395Z,13.00
2023-04-11T19:07:56.370Z,12.90
2023-04-11T19:10:23.281Z,13.00
2023-04-11T19:12:50.036Z,12.90
2023-04-11T19:15:16.900Z,12.90
2023-04-11T19:17:43.749Z,12.80
2023-04-11T19:20:12.978Z,12.80
2023-04-11T19:22:43.025Z,12.90
2023-04-11T19:25:11.032Z,13.00
2023-04-11T19:27:40.308Z,13.00
2023-04-11T19:30:10.947Z,13.00
2023-04-11T19:32:40.760Z,12.90
2023-04-11T19:35:09.289Z,12.90
2023-04-11T19:37:36.693Z,12.90
2023-04-11T19:40:07.337Z,12.80
2023-04-11T19:42:36.851Z,12.70
2023-04-11T19:45:04.772Z,12.70
2023-04-11T19:47:32.280Z,12.60
2023-04-11T19:50:00.978Z,12.50
2023-04-11T19:52:28.373Z,12.20
2023-04-11T19:54:56.553Z,12.10
2023-04-11T19:57:25.506Z,11.90
2023-04-11T19:59:52.334Z,11.70
2023-04-11T20:02:19.285Z,11.50
2023-04-11T20:04:46.631Z,11.50
2023-04-11T20:07:13.576Z,11.40
2023-04-11T20:09:41.117Z,11.30
2023-04-11T20:12:08.135Z,11.30
2023-04-11T20:14:34.967Z,11.50
2023-04-11T20:17:02.025Z,11.50
2023-04-11T20:19:29.723Z,11.40
2023-04-11T20:21:56.726Z,11.50
2023-04-11T20:24:24.170Z,11.40
2023-04-11T20:26:51.423Z,11.30
2023-04-11T20:29:18.449Z,11.30
2023-04-11T20:31:45.335Z,11.30
2023-04-11T20:34:12.219Z,11.20
2023-04-11T20:36:39.426Z,11.20
2023-04-11T20:39:07.150Z,11.20
2023-04-11T20:41:34.073Z,11.20
2023-04-11T20:44:00.916Z,11.10
2023-04-11T20:46:29.711Z,11.10
2023-04-11T20:48:56.936Z,11.00
2023-04-11T20:51:25.002Z,11.00
2023-04-11T20:53:51.892Z,11.00
2023-04-11T20:56:18.720Z,10.90
2023-04-11T20:58:46.483Z,10.90
2023-04-11T21:01:13.723Z,10.80
2023-04-11T21:03:43.875Z,10.80
2023-04-11T21:06:10.927Z,10.80
2023-04-11T21:08:37.946Z,10.70
2023-04-11T21:11:05.693Z,10.70
2023-04-11T21:13:32.559Z,10.60
2023-04-11T21:15:59.425Z,10.60
2023-04-11T21:18:26.351Z,10.50
2023-04-11T21:20:53.149Z,10.60
2023-04-11T21:23:19.906Z,10.60
2023-04-11T21:25:46.925Z,10.50
2023-04-11T21:28:13.886Z,10.50
2023-04-11T21:30:42.246Z,10.40
2023-04-11T21:33:10.310Z,10.40
2023-04-11T21:35:37.155Z,10.40
2023-04-11T21:38:03.961Z,10.30
2023-04-11T21:40:30.913Z,10.20
2023-04-11T21:42:57.697Z,10.10
2023-04-11T21:45:24.568Z,10.10
2023-04-11T21:47:51.597Z,10.10
2023-04-11T21:50:18.891Z,10.10
2023-04-11T21:52:46.429Z,10.10
2023-04-11T21:55:14.692Z,10.10
2023-04-11T21:57:41.879Z,10.10
2023-04-11T22:00:10.995Z,10.00
2023-04-11T22:02:38.705Z,10.10
2023-04-11T22:05:08.715Z,10.00
2023-04-11T22:07:54.618Z,10.00
2023-04-11T22:10:30.343Z,10.00
2023-04-11T22:13:01.749Z,9.90
2023-04-11T22:15:33.105Z,9.90
2023-04-11T22:18:03.384Z,9.90
2023-04-11T22:20:30.191Z,9.80
2023-04-11T22:22:56.955Z,9.80
2023-04-11T22:25:24.886Z,9.70
2023-04-11T22:27:54.499Z,9.70
2023-04-11T22:30:23.246Z,9.70
2023-04-11T22:32:51.143Z,9.70
2023-04-11T22:35:18.627Z,9.70
2023-04-11T22:37:45.759Z,9.70
2023-04-11T22:40:13.678Z,9.70
2023-04-11T22:42:40.413Z,9.70
2023-04-11T22:45:08.254Z,9.60
2023-04-11T22:47:38.020Z,9.60
2023-04-11T22:50:06.058Z,9.60
2023-04-11T22:52:32.805Z,9.50
2023-04-11T22:54:59.610Z,9.50
2023-04-11T22:57:26.336Z,9.50
2023-04-11T22:59:53.065Z,9.40
2023-04-11T23:02:19.968Z,9.40
2023-04-11T23:04:46.756Z,9.40
2023-04-11T23:07:13.916Z,9.40
2023-04-11T23:09:40.637Z,9.40
2023-04-11T23:12:07.854Z,9.40
2023-04-11T23:14:34.644Z,9.40
2023-04-11T23:17:01.438Z,9.40
2023-04-11T23:19:30.010Z,9.30
2023-04-11T23:21:56.741Z,9.30
2023-04-11T23:24:23.608Z,9.40
2023-04-11T23:26:50.767Z,9.30
2023-04-11T23:29:18.380Z,9.30
2023-04-11T23:31:45.109Z,9.30
2023-04-11T23:34:11.855Z,9.20
2023-04-11T23:36:38.768Z,9.20
2023-04-11T23:39:05.640Z,9.20
2023-04-11T23:41:32.503Z,9.20
2023-04-11T23:43:59.414Z,9.20
2023-04-11T23:46:26.641Z,9.20
2023-04-11T23:48:53.865Z,9.10
2023-04-11T23:51:20.858Z,9.10
2023-04-11T23:53:48.026Z,9.10
2023-04-11T23:56:14.907Z,9.10
2023-04-11T23:58:41.616Z,9.10
